createdAt,value
2018-07-30T00:01:08.281Z,94.80
2018-07-30T00:03:36.711Z,94.70
2018-07-30T00:06:05.174Z,94.60
2018-07-30T00:08:33.797Z,94.30
2018-07-30T00:11:02.256Z,94.10
2018-07-30T00:13:30.776Z,94.00
2018-07-30T00:15:59.285Z,94.00
2018-07-30T00:18:27.833Z,94.20
2018-07-30T00:20:56.404Z,94.50
2018-07-30T00:23:25.027Z,94.60
2018-07-30T00:25:53.459Z,94.50
2018-07-30T00:28:22.125Z,94.20
2018-07-30T00:30:50.589Z,94.10
2018-07-30T00:33:19.111Z,93.90
2018-07-30T00:35:47.505Z,93.80
2018-07-30T00:38:16.277Z,94.10
2018-07-30T00:43:13.080Z,94.40
2018-07-30T00:45:41.543Z,94.40
2018-07-30T00:48:10.040Z,94.40
2018-07-30T00:50:38.557Z,94.50
2018-07-30T00:53:07.288Z,94.70
2018-07-30T00:55:35.857Z,94.90
2018-07-30T00:58:04.391Z,95.10
2018-07-30T01:00:32.991Z,95.30
2018-07-30T01:03:01.394Z,95.30
2018-07-30T01:05:29.929Z,95.40
2018-07-30T01:07:58.365Z,95.50
2018-07-30T01:10:27.210Z,95.80
2018-07-30T01:12:55.726Z,96.10
2018-07-30T01:15:24.325Z,96.10
2018-07-30T01:17:52.855Z,96.00
2018-07-30T01:20:21.300Z,96.20
2018-07-30T01:22:49.829Z,96.20
2018-07-30T01:25:18.261Z,96.00
2018-07-30T01:27:46.688Z,96.10
2018-07-30T01:30:15.197Z,96.60
2018-07-30T01:32:43.715Z,97.20
2018-07-30T01:35:12.212Z,97.20
2018-07-30T01:37:40.768Z,97.50
2018-07-30T01:40:09.273Z,97.10
2018-07-30T01:42:37.906Z,97.10
2018-07-30T01:45:06.484Z,97.10
2018-07-30T01:47:34.913Z,97.00
2018-07-30T01:50:03.443Z,96.80
2018-07-30T01:52:32.004Z,96.60
2018-07-30T01:55:00.628Z,96.50
2018-07-30T01:57:29.303Z,96.50
2018-07-30T01:59:57.786Z,96.70
2018-07-30T02:02:26.474Z,97.40
2018-07-30T02:04:55.161Z,98.40
2018-07-30T02:07:23.811Z,99.00
2018-07-30T02:09:52.769Z,99.50
2018-07-30T02:12:21.181Z,99.60
2018-07-30T02:14:50.204Z,99.40
2018-07-30T02:17:18.740Z,99.10
2018-07-30T02:19:47.252Z,99.10
2018-07-30T02:22:15.930Z,99.30
2018-07-30T02:24:44.565Z,99.00
2018-07-30T02:27:13.093Z,99.00
2018-07-30T02:29:41.792Z,98.80
2018-07-30T02:32:10.666Z,98.60
2018-07-30T02:34:39.192Z,98.20
2018-07-30T02:37:07.817Z,98.00
2018-07-30T02:39:36.369Z,97.90
2018-07-30T02:42:05.037Z,97.60
2018-07-30T02:44:33.638Z,97.40
2018-07-30T02:47:02.381Z,97.30
2018-07-30T02:49:30.890Z,97.30
2018-07-30T02:51:59.549Z,97.00
2018-07-30T02:54:28.069Z,97.10
2018-07-30T02:56:56.701Z,96.90
2018-07-30T02:59:25.190Z,96.70
2018-07-30T03:01:53.828Z,96.70
2018-07-30T03:04:22.453Z,96.70
2018-07-30T03:06:51.141Z,96.80
2018-07-30T03:09:19.772Z,96.80
2018-07-30T03:11:48.284Z,96.70
2018-07-30T03:14:16.829Z,96.70
2018-07-30T03:16:45.273Z,96.90
2018-07-30T03:19:13.694Z,96.90
2018-07-30T03:21:42.160Z,97.00
2018-07-30T03:24:10.729Z,96.90
2018-07-30T03:26:39.192Z,96.90
2018-07-30T03:29:07.733Z,96.90
2018-07-30T03:31:36.305Z,96.70
2018-07-30T03:34:05.029Z,96.60
2018-07-30T03:36:33.636Z,96.60
2018-07-30T03:39:02.104Z,96.50
2018-07-30T03:41:30.552Z,96.40
2018-07-30T03:43:59.065Z,96.40
2018-07-30T03:46:28.368Z,96.20
2018-07-30T03:48:56.904Z,96.20
2018-07-30T03:51:25.517Z,96.00
2018-07-30T03:53:54.049Z,95.80
2018-07-30T03:56:22.626Z,95.80
2018-07-30T03:58:51.221Z,95.70
2018-07-30T04:01:19.857Z,95.70
2018-07-30T04:03:48.297Z,95.60
2018-07-30T04:06:17.046Z,95.50
2018-07-30T04:08:45.685Z,95.40
2018-07-30T04:11:14.262Z,95.30
2018-07-30T04:13:42.743Z,95.20
2018-07-30T04:16:11.285Z,95.00
2018-07-30T04:18:39.925Z,94.70
2018-07-30T04:21:08.624Z,94.50
2018-07-30T04:23:37.290Z,94.30
2018-07-30T04:26:05.878Z,94.00
2018-07-30T04:28:34.461Z,93.90
2018-07-30T04:31:02.977Z,93.30
2018-07-30T04:33:31.412Z,92.90
2018-07-30T04:36:00.093Z,92.50
2018-07-30T04:38:28.636Z,92.30
2018-07-30T04:40:57.307Z,92.00
2018-07-30T04:43:26.005Z,92.30
2018-07-30T04:45:54.640Z,91.90
2018-07-30T04:48:23.394Z,91.90
2018-07-30T04:50:51.996Z,91.10
2018-07-30T04:53:20.410Z,90.30
2018-07-30T04:55:48.833Z,89.80
2018-07-30T04:58:17.324Z,88.40
2018-07-30T05:00:45.806Z,85.30
2018-07-30T05:03:14.256Z,84.70
2018-07-30T05:05:42.989Z,83.70
2018-07-30T05:08:11.445Z,81.50
2018-07-30T05:10:39.884Z,80.70
2018-07-30T05:13:08.938Z,79.80
2018-07-30T05:15:37.502Z,79.00
2018-07-30T05:18:06.009Z,77.80
2018-07-30T05:20:34.497Z,77.20
2018-07-30T05:23:02.960Z,74.80
2018-07-30T05:25:31.561Z,74.00
2018-07-30T05:28:00.009Z,73.00
2018-07-30T05:30:28.562Z,73.10
2018-07-30T05:32:57.078Z,71.80
2018-07-30T05:35:25.782Z,72.70
2018-07-30T05:37:54.313Z,70.50
2018-07-30T05:40:22.820Z,71.20
2018-07-30T05:42:51.554Z,70.40
2018-07-30T05:45:20.140Z,68.90
2018-07-30T05:47:48.654Z,68.30
2018-07-30T05:50:17.367Z,67.30
2018-07-30T05:52:46.011Z,66.40
2018-07-30T05:55:14.554Z,66.00
2018-07-30T05:57:43.224Z,65.30
2018-07-30T06:02:40.161Z,65.20
2018-07-30T06:05:10.140Z,65.40
2018-07-30T06:07:38.562Z,64.70
2018-07-30T06:10:07.440Z,63.00
2018-07-30T06:12:35.905Z,63.60
2018-07-30T06:15:04.922Z,65.10
2018-07-30T06:17:33.541Z,65.10
2018-07-30T06:20:02.428Z,65.60
2018-07-30T06:22:31.069Z,63.70
2018-07-30T06:24:59.592Z,62.40
2018-07-30T06:27:28.455Z,61.30
2018-07-30T06:29:56.947Z,61.90
2018-07-30T06:32:25.800Z,61.80
2018-07-30T06:34:54.293Z,61.00
2018-07-30T06:37:22.760Z,61.90
2018-07-30T06:39:51.215Z,62.70
2018-07-30T06:42:19.705Z,63.10
2018-07-30T06:44:48.317Z,63.10
2018-07-30T06:47:16.856Z,61.80
2018-07-30T06:49:45.325Z,61.80
2018-07-30T06:52:13.852Z,60.30
2018-07-30T06:54:42.383Z,60.60
2018-07-30T06:57:11.089Z,60.50
2018-07-30T06:59:39.536Z,60.00
2018-07-30T07:02:08.055Z,58.70
2018-07-30T07:04:36.834Z,57.20
2018-07-30T07:07:05.461Z,57.30
2018-07-30T07:09:34.120Z,56.60
2018-07-30T07:12:02.727Z,56.50
2018-07-30T07:14:31.137Z,57.30
2018-07-30T07:16:59.820Z,55.50
2018-07-30T07:19:28.463Z,56.40
2018-07-30T07:21:57.072Z,55.00
2018-07-30T07:24:25.442Z,55.50
2018-07-30T07:29:22.255Z,53.90
2018-07-30T07:31:50.737Z,54.60
2018-07-30T07:34:19.798Z,54.30
2018-07-30T07:36:48.862Z,53.80
2018-07-30T07:39:17.541Z,53.30
2018-07-30T07:41:46.101Z,53.60
2018-07-30T07:44:14.618Z,53.00
2018-07-30T07:46:43.314Z,53.40
2018-07-30T07:49:11.876Z,53.70
2018-07-30T07:51:40.340Z,52.90
2018-07-30T07:54:09.153Z,53.30
2018-07-30T07:56:37.661Z,53.40
2018-07-30T07:59:06.182Z,53.20
2018-07-30T08:01:34.704Z,52.60
2018-07-30T08:04:03.257Z,52.60
2018-07-30T08:06:31.765Z,51.90
2018-07-30T08:09:00.223Z,52.10
2018-07-30T08:11:28.781Z,51.70
2018-07-30T08:13:57.386Z,51.40
2018-07-30T08:16:25.964Z,50.70
2018-07-30T08:18:54.720Z,51.40
2018-07-30T08:21:23.281Z,51.20
2018-07-30T08:23:51.858Z,51.60
2018-07-30T08:26:20.322Z,51.40
2018-07-30T08:28:48.918Z,51.80
2018-07-30T08:31:17.476Z,51.80
2018-07-30T08:33:46.111Z,51.00
2018-07-30T08:36:14.647Z,51.00
2018-07-30T08:41:11.519Z,50.20
2018-07-30T08:43:41.047Z,49.90
2018-07-30T08:46:09.469Z,50.10
2018-07-30T08:48:38.048Z,49.80
2018-07-30T08:51:06.751Z,50.40
2018-07-30T08:53:35.284Z,50.50
2018-07-30T08:56:03.970Z,50.60
2018-07-30T08:58:32.609Z,50.40
2018-07-30T09:01:01.257Z,50.60
2018-07-30T09:03:29.881Z,51.00
2018-07-30T09:05:58.409Z,51.60
2018-07-30T09:08:26.925Z,50.00
2018-07-30T09:10:55.493Z,49.20
2018-07-30T09:13:24.132Z,49.10
2018-07-30T09:15:52.897Z,49.20
2018-07-30T09:18:21.589Z,49.70
2018-07-30T09:20:49.908Z,49.40
2018-07-30T09:23:18.325Z,49.40
2018-07-30T09:25:46.913Z,49.20
2018-07-30T09:28:15.429Z,50.00
2018-07-30T09:30:44.013Z,49.50
2018-07-30T09:33:12.629Z,49.70
2018-07-30T09:38:09.361Z,47.50
2018-07-30T09:40:37.825Z,47.40
2018-07-30T09:43:06.466Z,47.70
2018-07-30T09:45:35.081Z,47.90
2018-07-30T09:48:03.745Z,47.30
2018-07-30T09:50:32.401Z,47.20
2018-07-30T09:53:01.066Z,47.20
2018-07-30T09:55:29.761Z,45.80
2018-07-30T09:57:58.389Z,45.50
2018-07-30T10:00:32.393Z,46.00
2018-07-30T10:03:01.084Z,46.00
2018-07-30T10:05:29.801Z,45.60
2018-07-30T10:07:58.229Z,45.60
2018-07-30T10:10:26.764Z,45.00
2018-07-30T10:12:55.204Z,44.70
2018-07-30T10:15:23.740Z,45.30
2018-07-30T10:17:52.220Z,45.20
2018-07-30T10:20:20.738Z,44.70
2018-07-30T10:22:49.201Z,44.70
2018-07-30T10:25:17.831Z,44.20
2018-07-30T10:27:46.509Z,44.20
2018-07-30T10:30:15.025Z,44.20
2018-07-30T10:32:43.709Z,44.60
2018-07-30T10:35:12.349Z,45.00
2018-07-30T10:37:40.870Z,44.70
2018-07-30T10:40:09.464Z,44.50
2018-07-30T10:42:38.065Z,44.40
2018-07-30T10:45:06.673Z,44.70
2018-07-30T10:47:35.435Z,44.70
2018-07-30T10:52:32.551Z,45.10
2018-07-30T10:55:01.300Z,45.30
2018-07-30T10:57:29.936Z,45.90
2018-07-30T10:59:58.389Z,45.00
2018-07-30T11:02:26.893Z,44.80
2018-07-30T11:04:55.457Z,45.00
2018-07-30T11:07:24.166Z,45.60
2018-07-30T11:09:52.685Z,45.50
2018-07-30T11:12:21.158Z,45.60
2018-07-30T11:14:49.784Z,46.00
2018-07-30T11:17:18.429Z,45.90
2018-07-30T11:19:46.897Z,45.10
2018-07-30T11:22:15.353Z,45.30
2018-07-30T11:24:43.948Z,44.90
2018-07-30T11:27:12.402Z,44.50
2018-07-30T11:29:41.174Z,44.30
2018-07-30T11:32:09.688Z,44.30
2018-07-30T11:34:38.393Z,44.80
2018-07-30T11:37:07.093Z,44.60
2018-07-30T11:39:35.833Z,44.40
2018-07-30T11:42:04.265Z,44.20
2018-07-30T11:44:32.806Z,44.20
2018-07-30T11:47:01.257Z,43.50
2018-07-30T11:49:29.867Z,43.90
2018-07-30T11:54:26.920Z,43.20
2018-07-30T11:56:55.444Z,44.10
2018-07-30T11:59:23.964Z,44.00
2018-07-30T12:01:52.563Z,43.80
2018-07-30T12:04:21.021Z,42.60
2018-07-30T12:06:49.474Z,41.40
2018-07-30T12:09:17.989Z,41.70
2018-07-30T12:11:46.447Z,40.90
2018-07-30T12:14:14.867Z,39.10
2018-07-30T12:16:43.448Z,37.50
2018-07-30T12:19:11.849Z,39.40
2018-07-30T12:21:40.474Z,38.80
2018-07-30T12:24:09.298Z,39.70
2018-07-30T12:26:37.878Z,40.10
2018-07-30T12:29:06.414Z,38.50
2018-07-30T12:34:03.233Z,37.20
2018-07-30T12:36:31.775Z,37.30
2018-07-30T12:39:07.960Z,36.60
2018-07-30T12:41:37.009Z,37.10
2018-07-30T12:44:05.744Z,38.60
2018-07-30T12:46:34.229Z,38.50
2018-07-30T12:49:02.937Z,39.20
2018-07-30T12:51:31.569Z,39.20
2018-07-30T12:54:00.185Z,39.00
2018-07-30T12:56:28.764Z,38.40
2018-07-30T12:58:57.386Z,38.40
2018-07-30T13:01:26.146Z,37.60
2018-07-30T13:03:54.677Z,37.00
2018-07-30T13:06:23.112Z,36.80
2018-07-30T13:08:51.649Z,36.80
2018-07-30T13:11:20.285Z,36.90
2018-07-30T13:13:48.803Z,36.90
2018-07-30T13:16:17.517Z,36.90
2018-07-30T13:18:46.101Z,35.60
2018-07-30T13:21:14.639Z,37.30
2018-07-30T13:23:43.243Z,37.20
2018-07-30T13:26:11.804Z,36.90
2018-07-30T13:28:40.274Z,37.30
2018-07-30T13:31:09.072Z,36.70
2018-07-30T13:33:37.513Z,37.00
2018-07-30T13:36:06.006Z,36.80
2018-07-30T13:38:35.109Z,36.60
2018-07-30T13:41:03.633Z,34.60
2018-07-30T13:43:32.521Z,35.60
2018-07-30T13:46:01.028Z,35.70
2018-07-30T13:48:29.683Z,34.30
2018-07-30T13:50:58.212Z,34.70
2018-07-30T13:53:26.780Z,35.30
2018-07-30T13:55:55.428Z,35.20
2018-07-30T13:58:23.960Z,35.50
2018-07-30T14:00:52.611Z,35.70
2018-07-30T14:03:21.161Z,35.00
2018-07-30T14:05:49.737Z,34.60
2018-07-30T14:08:18.196Z,33.70
2018-07-30T14:10:46.733Z,34.70
2018-07-30T14:13:15.376Z,34.60
2018-07-30T14:15:43.945Z,34.50
2018-07-30T14:18:12.546Z,35.30
2018-07-30T14:20:41.145Z,35.00
2018-07-30T14:23:09.650Z,35.40
2018-07-30T14:25:38.210Z,35.80
2018-07-30T14:28:06.775Z,35.30
2018-07-30T14:30:35.295Z,35.00
2018-07-30T14:33:03.925Z,35.30
2018-07-30T14:35:32.456Z,35.10
2018-07-30T14:38:00.983Z,34.90
2018-07-30T14:40:29.673Z,34.50
2018-07-30T14:42:58.264Z,34.50
2018-07-30T14:45:27.054Z,34.70
2018-07-30T14:47:55.736Z,34.90
2018-07-30T14:50:24.154Z,34.50
2018-07-30T14:52:52.678Z,34.60
2018-07-30T14:55:21.149Z,34.90
2018-07-30T14:57:49.721Z,34.90
2018-07-30T15:00:18.301Z,35.00
2018-07-30T15:02:46.737Z,34.30
2018-07-30T15:05:19.559Z,34.30
2018-07-30T15:07:48.132Z,34.20
2018-07-30T15:10:16.613Z,34.00
2018-07-30T15:12:45.129Z,33.60
2018-07-30T15:15:13.752Z,33.30
2018-07-30T15:17:43.061Z,33.00
2018-07-30T15:20:11.568Z,32.10
2018-07-30T15:22:40.010Z,31.60
2018-07-30T15:25:08.499Z,31.50
2018-07-30T15:30:06.438Z,32.70
2018-07-30T15:32:35.169Z,32.20
2018-07-30T15:35:03.743Z,32.00
2018-07-30T15:37:32.344Z,32.10
2018-07-30T15:40:00.802Z,32.10
2018-07-30T15:42:29.382Z,32.00
2018-07-30T15:44:57.948Z,32.30
2018-07-30T15:47:26.494Z,32.60
2018-07-30T15:49:54.947Z,32.90
2018-07-30T15:52:23.420Z,32.60
2018-07-30T15:54:51.960Z,33.10
2018-07-30T15:57:20.493Z,32.40
2018-07-30T15:59:48.950Z,32.20
2018-07-30T16:02:17.359Z,31.90
2018-07-30T16:04:45.877Z,31.90
2018-07-30T16:07:14.314Z,31.70
2018-07-30T16:09:42.892Z,31.50
2018-07-30T16:12:11.607Z,31.40
2018-07-30T16:14:40.160Z,31.40
2018-07-30T16:17:08.695Z,30.90
2018-07-30T16:19:37.185Z,30.40
2018-07-30T16:22:05.852Z,29.70
2018-07-30T16:24:34.332Z,29.50
2018-07-30T16:27:02.827Z,28.60
2018-07-30T16:29:31.377Z,27.90
2018-07-30T16:31:59.820Z,27.90
2018-07-30T16:34:28.299Z,27.80
2018-07-30T16:36:56.863Z,27.70
2018-07-30T16:39:25.278Z,27.60
2018-07-30T16:41:54.001Z,27.10
2018-07-30T16:44:22.565Z,26.90
2018-07-30T16:46:51.102Z,26.40
2018-07-30T16:49:19.673Z,26.00
2018-07-30T16:51:48.474Z,25.90
2018-07-30T16:54:16.976Z,25.90
2018-07-30T16:56:45.716Z,26.20
2018-07-30T16:59:14.158Z,26.30
2018-07-30T17:01:42.613Z,26.30
2018-07-30T17:04:11.119Z,26.30
2018-07-30T17:06:39.770Z,26.10
2018-07-30T17:09:10.626Z,26.20
2018-07-30T17:14:07.477Z,27.20
2018-07-30T17:16:35.956Z,28.20
2018-07-30T17:19:04.837Z,29.20
2018-07-30T17:21:33.390Z,30.00
2018-07-30T17:24:01.998Z,31.20
2018-07-30T17:26:30.581Z,33.10
2018-07-30T17:28:59.001Z,33.10
2018-07-30T17:31:27.550Z,33.90
2018-07-30T17:33:56.113Z,34.20
2018-07-30T17:36:24.521Z,34.60
2018-07-30T17:38:52.979Z,35.20
2018-07-30T17:41:21.569Z,35.70
2018-07-30T17:43:50.013Z,35.80
2018-07-30T17:46:18.504Z,35.70
2018-07-30T17:48:47.222Z,35.90
2018-07-30T17:51:15.648Z,36.00
2018-07-30T17:53:44.085Z,35.30
2018-07-30T17:56:12.589Z,35.80
2018-07-30T17:58:41.068Z,35.80
2018-07-30T18:01:09.483Z,36.00
2018-07-30T18:03:38.008Z,36.40
2018-07-30T18:06:06.586Z,36.90
2018-07-30T18:08:34.997Z,37.20
2018-07-30T18:11:03.656Z,37.40
2018-07-30T18:13:32.201Z,37.70
2018-07-30T18:16:00.763Z,37.60
2018-07-30T18:18:29.377Z,37.70
2018-07-30T18:20:57.869Z,37.90
2018-07-30T18:23:26.324Z,37.70
2018-07-30T18:25:54.798Z,37.60
2018-07-30T18:28:23.322Z,38.00
2018-07-30T18:30:51.829Z,38.40
2018-07-30T18:33:20.384Z,38.30
2018-07-30T18:35:48.889Z,37.40
2018-07-30T18:38:17.377Z,37.20
2018-07-30T18:40:46.005Z,37.90
2018-07-30T18:43:14.402Z,38.30
2018-07-30T18:45:42.937Z,38.70
2018-07-30T18:48:11.401Z,38.90
2018-07-30T18:50:39.931Z,39.30
2018-07-30T18:53:08.485Z,39.70
2018-07-30T18:55:37.055Z,39.90
2018-07-30T18:58:05.685Z,40.30
2018-07-30T19:00:34.337Z,40.80
2018-07-30T19:03:02.858Z,41.00
2018-07-30T19:05:31.390Z,41.60
2018-07-30T19:07:59.825Z,42.10
2018-07-30T19:10:28.279Z,42.40
2018-07-30T19:12:56.877Z,42.40
2018-07-30T19:15:25.522Z,43.00
2018-07-30T19:17:54.001Z,43.50
2018-07-30T19:20:22.449Z,43.90
2018-07-30T19:22:51.112Z,44.60
2018-07-30T19:25:19.653Z,44.60
2018-07-30T19:27:48.249Z,44.70
2018-07-30T19:32:44.909Z,45.30
2018-07-30T19:35:13.390Z,45.60
2018-07-30T19:40:10.373Z,45.00
2018-07-30T19:42:38.943Z,45.50
2018-07-30T19:45:07.774Z,45.30
2018-07-30T19:47:36.413Z,45.60
2018-07-30T19:50:05.420Z,45.70
2018-07-30T19:52:33.997Z,45.90
2018-07-30T19:55:02.505Z,46.30
2018-07-30T19:57:30.997Z,46.70
2018-07-30T19:59:59.465Z,46.80
2018-07-30T20:02:28.029Z,47.10
2018-07-30T20:04:56.885Z,47.40
2018-07-30T20:07:25.980Z,48.00
2018-07-30T20:09:54.492Z,47.90
2018-07-30T20:12:23.023Z,48.10
2018-07-30T20:14:51.571Z,48.20
2018-07-30T20:17:20.061Z,48.10
2018-07-30T20:19:48.748Z,48.10
2018-07-30T20:22:17.220Z,48.10
2018-07-30T20:24:45.745Z,48.20
2018-07-30T20:27:14.160Z,48.60
2018-07-30T20:29:42.589Z,49.00
2018-07-30T20:32:11.100Z,49.40
2018-07-30T20:34:39.728Z,50.00
2018-07-30T20:37:08.271Z,50.30
2018-07-30T20:39:36.777Z,50.60
2018-07-30T20:42:05.463Z,50.50
2018-07-30T20:44:34.031Z,50.70
2018-07-30T20:47:02.589Z,50.90
2018-07-30T20:49:31.314Z,51.30
2018-07-30T20:52:00.059Z,51.90
2018-07-30T20:54:28.673Z,52.40
2018-07-30T20:56:57.191Z,52.60
2018-07-30T20:59:25.624Z,52.70
2018-07-30T21:01:54.178Z,52.90
2018-07-30T21:04:22.824Z,53.00
2018-07-30T21:06:51.514Z,53.20
2018-07-30T21:09:20.264Z,53.20
2018-07-30T21:11:48.992Z,53.30
2018-07-30T21:14:17.973Z,53.50
2018-07-30T21:16:46.494Z,53.90
2018-07-30T21:19:15.135Z,54.40
2018-07-30T21:21:43.676Z,54.50
2018-07-30T21:24:12.286Z,54.60
2018-07-30T21:26:40.865Z,54.90
2018-07-30T21:29:09.314Z,55.10
2018-07-30T21:31:37.810Z,55.30
2018-07-30T21:34:06.501Z,55.30
2018-07-30T21:36:35.021Z,55.30
2018-07-30T21:39:03.946Z,55.40
2018-07-30T21:41:32.586Z,55.40
2018-07-30T21:44:01.137Z,55.30
2018-07-30T21:46:29.593Z,55.50
2018-07-30T21:48:58.289Z,55.80
2018-07-30T21:51:26.790Z,56.00
2018-07-30T21:53:55.337Z,56.20
2018-07-30T21:56:23.843Z,56.40
2018-07-30T21:58:52.445Z,56.70
2018-07-30T22:01:21.082Z,57.10
2018-07-30T22:06:17.877Z,57.80
2018-07-30T22:08:46.469Z,57.90
2018-07-30T22:11:14.981Z,57.80
2018-07-30T22:13:43.609Z,58.10
2018-07-30T22:16:12.197Z,58.30
2018-07-30T22:18:40.798Z,58.30
2018-07-30T22:21:09.346Z,58.30
2018-07-30T22:23:37.854Z,58.50
2018-07-30T22:26:06.633Z,58.50
2018-07-30T22:28:35.081Z,58.70
2018-07-30T22:31:03.861Z,58.70
2018-07-30T22:33:32.325Z,59.00
2018-07-30T22:36:00.763Z,59.10
2018-07-30T22:38:29.533Z,59.40
2018-07-30T22:40:58.050Z,59.60
2018-07-30T22:43:26.585Z,59.70
2018-07-30T22:45:55.025Z,59.80
2018-07-30T22:48:23.498Z,60.00
2018-07-30T22:50:51.942Z,60.00
2018-07-30T22:53:20.613Z,59.80
2018-07-30T22:55:49.365Z,59.70
2018-07-30T22:58:17.913Z,60.00
2018-07-30T23:00:46.542Z,60.00
2018-07-30T23:03:15.352Z,60.00
2018-07-30T23:05:43.752Z,60.50
2018-07-30T23:08:12.309Z,60.80
2018-07-30T23:10:40.901Z,60.90
2018-07-30T23:13:09.557Z,61.00
2018-07-30T23:15:38.093Z,61.30
2018-07-30T23:18:06.653Z,60.80
2018-07-30T23:20:35.186Z,61.10
2018-07-30T23:23:03.821Z,60.70
2018-07-30T23:25:32.465Z,60.00
2018-07-30T23:28:00.972Z,59.50
2018-07-30T23:30:29.667Z,59.50
2018-07-30T23:32:58.253Z,59.50
2018-07-30T23:35:26.658Z,59.50
2018-07-30T23:37:55.336Z,59.80
2018-07-30T23:40:24.165Z,60.50
2018-07-30T23:42:52.609Z,60.70
2018-07-30T23:45:21.229Z,61.00
2018-07-30T23:47:49.701Z,61.20
2018-07-30T23:50:18.346Z,61.30
2018-07-30T23:52:46.951Z,61.40
2018-07-30T23:55:15.613Z,61.70
2018-07-30T23:57:44.148Z,62.00
